sensor_id;sensor_type;location;lat;lon;timestamp;P1;durP1;ratioP1;P2;durP2;ratioP2
51848;SDS011;38952;51.090;-1.832;2022-08-03T00:01:00;4.55;;;0.90;;
51848;SDS011;38952;51.090;-1.832;2022-08-03T00:03:25;6.82;;;1.20;;
51848;SDS011;38952;51.090;-1.832;2022-08-03T00:05:51;8.80;;;2.03;;
51848;SDS011;38952;51.090;-1.832;2022-08-03T00:08:17;12.40;;;1.60;;
51848;SDS011;38952;51.090;-1.832;2022-08-03T00:10:42;6.18;;;1.15;;
51848;SDS011;38952;51.090;-1.832;2022-08-03T00:13:08;9.32;;;1.75;;
51848;SDS011;38952;51.090;-1.832;2022-08-03T00:15:35;6.18;;;1.33;;
51848;SDS011;38952;51.090;-1.832;2022-08-03T00:18:00;5.03;;;1.20;;
51848;SDS011;38952;51.090;-1.832;2022-08-03T00:20:25;4.93;;;1.77;;
51848;SDS011;38952;51.090;-1.832;2022-08-03T00:22:51;3.30;;;1.52;;
51848;SDS011;38952;51.090;-1.832;2022-08-03T00:25:16;3.40;;;1.08;;
51848;SDS011;38952;51.090;-1.832;2022-08-03T00:27:42;4.60;;;1.38;;
51848;SDS011;38952;51.090;-1.832;2022-08-03T00:30:07;11.30;;;1.48;;
51848;SDS011;38952;51.090;-1.832;2022-08-03T00:32:33;7.32;;;1.30;;
51848;SDS011;38952;51.090;-1.832;2022-08-03T00:34:58;5.05;;;1.30;;
51848;SDS011;38952;51.090;-1.832;2022-08-03T00:37:24;11.15;;;1.73;;
51848;SDS011;38952;51.090;-1.832;2022-08-03T00:39:49;5.90;;;1.33;;
51848;SDS011;38952;51.090;-1.832;2022-08-03T00:42:15;6.28;;;1.25;;
51848;SDS011;38952;51.090;-1.832;2022-08-03T00:44:40;4.53;;;1.52;;
51848;SDS011;38952;51.090;-1.832;2022-08-03T00:47:08;5.68;;;1.30;;
51848;SDS011;38952;51.090;-1.832;2022-08-03T00:49:36;21.30;;;1.70;;
51848;SDS011;38952;51.090;-1.832;2022-08-03T00:52:03;6.75;;;1.58;;
51848;SDS011;38952;51.090;-1.832;2022-08-03T00:54:29;13.48;;;1.67;;
51848;SDS011;38952;51.090;-1.832;2022-08-03T00:56:56;5.18;;;1.50;;
51848;SDS011;38952;51.090;-1.832;2022-08-03T00:59:21;4.78;;;1.25;;
51848;SDS011;38952;51.090;-1.832;2022-08-03T01:01:47;7.05;;;1.48;;
51848;SDS011;38952;51.090;-1.832;2022-08-03T01:04:12;6.18;;;1.33;;
51848;SDS011;38952;51.090;-1.832;2022-08-03T01:06:59;11.35;;;1.83;;
51848;SDS011;38952;51.090;-1.832;2022-08-03T01:17:48;7.80;;;1.40;;
51848;SDS011;38952;51.090;-1.832;2022-08-03T01:20:19;9.45;;;1.70;;
51848;SDS011;38952;51.090;-1.832;2022-08-03T01:31:03;6.45;;;1.50;;
51848;SDS011;38952;51.090;-1.832;2022-08-03T01:33:36;4.38;;;1.00;;
51848;SDS011;38952;51.090;-1.832;2022-08-03T01:36:12;5.82;;;0.95;;
51848;SDS011;38952;51.090;-1.832;2022-08-03T01:41:43;5.07;;;1.63;;
51848;SDS011;38952;51.090;-1.832;2022-08-03T01:44:27;7.65;;;1.02;;
51848;SDS011;38952;51.090;-1.832;2022-08-03T01:46:58;4.40;;;0.95;;
51848;SDS011;38952;51.090;-1.832;2022-08-03T01:49:26;5.50;;;1.17;;
51848;SDS011;38952;51.090;-1.832;2022-08-03T01:51:54;3.38;;;0.88;;
51848;SDS011;38952;51.090;-1.832;2022-08-03T01:54:22;4.25;;;0.73;;
51848;SDS011;38952;51.090;-1.832;2022-08-03T01:56:49;4.20;;;1.00;;
51848;SDS011;38952;51.090;-1.832;2022-08-03T01:59:16;6.30;;;1.23;;
51848;SDS011;38952;51.090;-1.832;2022-08-03T02:01:44;3.17;;;0.75;;
51848;SDS011;38952;51.090;-1.832;2022-08-03T02:04:12;3.88;;;0.82;;
51848;SDS011;38952;51.090;-1.832;2022-08-03T02:06:41;7.72;;;0.90;;
51848;SDS011;38952;51.090;-1.832;2022-08-03T02:09:09;11.38;;;1.27;;
51848;SDS011;38952;51.090;-1.832;2022-08-03T02:11:36;4.50;;;0.88;;
51848;SDS011;38952;51.090;-1.832;2022-08-03T02:14:03;4.35;;;1.08;;
51848;SDS011;38952;51.090;-1.832;2022-08-03T02:16:30;4.15;;;0.80;;
51848;SDS011;38952;51.090;-1.832;2022-08-03T02:18:58;2.72;;;0.90;;
51848;SDS011;38952;51.090;-1.832;2022-08-03T02:21:27;6.20;;;1.40;;
51848;SDS011;38952;51.090;-1.832;2022-08-03T02:23:55;2.95;;;0.85;;
51848;SDS011;38952;51.090;-1.832;2022-08-03T02:26:21;2.97;;;1.00;;
51848;SDS011;38952;51.090;-1.832;2022-08-03T02:28:51;10.25;;;1.17;;
51848;SDS011;38952;51.090;-1.832;2022-08-03T02:31:21;4.78;;;1.52;;
51848;SDS011;38952;51.090;-1.832;2022-08-03T02:33:51;6.70;;;1.10;;
51848;SDS011;38952;51.090;-1.832;2022-08-03T02:36:18;7.97;;;1.00;;
51848;SDS011;38952;51.090;-1.832;2022-08-03T02:38:47;5.10;;;0.98;;
51848;SDS011;38952;51.090;-1.832;2022-08-03T02:41:15;6.82;;;1.00;;
51848;SDS011;38952;51.090;-1.832;2022-08-03T02:43:46;6.25;;;1.30;;
51848;SDS011;38952;51.090;-1.832;2022-08-03T02:46:16;2.85;;;0.90;;
51848;SDS011;38952;51.090;-1.832;2022-08-03T02:48:44;3.60;;;1.10;;
51848;SDS011;38952;51.090;-1.832;2022-08-03T02:51:12;2.05;;;0.93;;
51848;SDS011;38952;51.090;-1.832;2022-08-03T02:53:40;5.15;;;1.10;;
51848;SDS011;38952;51.090;-1.832;2022-08-03T02:56:09;6.65;;;0.82;;
51848;SDS011;38952;51.090;-1.832;2022-08-03T02:58:35;4.18;;;1.10;;
51848;SDS011;38952;51.090;-1.832;2022-08-03T03:01:03;3.75;;;0.85;;
51848;SDS011;38952;51.090;-1.832;2022-08-03T03:03:30;8.90;;;1.20;;
51848;SDS011;38952;51.090;-1.832;2022-08-03T03:05:56;5.60;;;1.20;;
51848;SDS011;38952;51.090;-1.832;2022-08-03T03:08:22;4.43;;;1.05;;
51848;SDS011;38952;51.090;-1.832;2022-08-03T03:10:48;7.75;;;1.02;;
51848;SDS011;38952;51.090;-1.832;2022-08-03T03:13:14;7.25;;;1.45;;
51848;SDS011;38952;51.090;-1.832;2022-08-03T03:15:42;3.63;;;1.17;;
51848;SDS011;38952;51.090;-1.832;2022-08-03T03:18:09;6.88;;;1.17;;
51848;SDS011;38952;51.090;-1.832;2022-08-03T03:20:35;8.65;;;1.40;;
51848;SDS011;38952;51.090;-1.832;2022-08-03T03:23:03;6.28;;;1.08;;
51848;SDS011;38952;51.090;-1.832;2022-08-03T03:25:30;4.40;;;1.30;;
51848;SDS011;38952;51.090;-1.832;2022-08-03T03:27:57;4.82;;;1.00;;
51848;SDS011;38952;51.090;-1.832;2022-08-03T03:30:25;11.52;;;1.25;;
51848;SDS011;38952;51.090;-1.832;2022-08-03T03:32:51;4.05;;;1.05;;
51848;SDS011;38952;51.090;-1.832;2022-08-03T03:35:17;9.90;;;1.40;;
51848;SDS011;38952;51.090;-1.832;2022-08-03T03:37:42;8.32;;;1.30;;
51848;SDS011;38952;51.090;-1.832;2022-08-03T03:40:08;10.90;;;1.30;;
51848;SDS011;38952;51.090;-1.832;2022-08-03T03:42:34;5.20;;;1.10;;
51848;SDS011;38952;51.090;-1.832;2022-08-03T03:45:05;6.68;;;1.83;;
51848;SDS011;38952;51.090;-1.832;2022-08-03T03:47:32;10.65;;;1.50;;
51848;SDS011;38952;51.090;-1.832;2022-08-03T03:49:58;3.10;;;0.95;;
51848;SDS011;38952;51.090;-1.832;2022-08-03T03:52:25;4.38;;;1.00;;
51848;SDS011;38952;51.090;-1.832;2022-08-03T03:54:51;10.25;;;1.58;;
51848;SDS011;38952;51.090;-1.832;2022-08-03T03:57:16;8.20;;;1.45;;
51848;SDS011;38952;51.090;-1.832;2022-08-03T03:59:42;5.07;;;1.10;;
51848;SDS011;38952;51.090;-1.832;2022-08-03T04:02:08;3.25;;;1.30;;
51848;SDS011;38952;51.090;-1.832;2022-08-03T04:04:35;11.07;;;1.30;;
51848;SDS011;38952;51.090;-1.832;2022-08-03T04:07:20;3.80;;;1.23;;
51848;SDS011;38952;51.090;-1.832;2022-08-03T04:10:09;4.65;;;1.15;;
51848;SDS011;38952;51.090;-1.832;2022-08-03T04:12:59;7.90;;;1.00;;
51848;SDS011;38952;51.090;-1.832;2022-08-03T04:15:26;10.82;;;1.40;;
51848;SDS011;38952;51.090;-1.832;2022-08-03T04:17:54;4.63;;;1.00;;
51848;SDS011;38952;51.090;-1.832;2022-08-03T04:20:23;6.22;;;1.10;;
51848;SDS011;38952;51.090;-1.832;2022-08-03T04:22:53;9.85;;;1.30;;
51848;SDS011;38952;51.090;-1.832;2022-08-03T04:25:24;7.68;;;1.20;;
51848;SDS011;38952;51.090;-1.832;2022-08-03T04:27:54;4.68;;;1.20;;
51848;SDS011;38952;51.090;-1.832;2022-08-03T04:30:23;7.90;;;1.42;;
51848;SDS011;38952;51.090;-1.832;2022-08-03T04:32:51;6.28;;;1.65;;
51848;SDS011;38952;51.090;-1.832;2022-08-03T04:35:18;8.20;;;1.13;;
51848;SDS011;38952;51.090;-1.832;2022-08-03T04:37:45;11.23;;;0.95;;
51848;SDS011;38952;51.090;-1.832;2022-08-03T04:40:14;5.25;;;1.33;;
51848;SDS011;38952;51.090;-1.832;2022-08-03T04:42:44;6.82;;;1.30;;
51848;SDS011;38952;51.090;-1.832;2022-08-03T04:45:10;4.60;;;1.00;;
51848;SDS011;38952;51.090;-1.832;2022-08-03T04:47:36;2.42;;;0.65;;
51848;SDS011;38952;51.090;-1.832;2022-08-03T04:50:04;4.18;;;0.63;;
51848;SDS011;38952;51.090;-1.832;2022-08-03T04:52:31;2.22;;;0.68;;
51848;SDS011;38952;51.090;-1.832;2022-08-03T04:54:58;1.48;;;0.65;;
51848;SDS011;38952;51.090;-1.832;2022-08-03T04:57:24;1.45;;;0.52;;
51848;SDS011;38952;51.090;-1.832;2022-08-03T04:59:53;2.13;;;0.60;;
51848;SDS011;38952;51.090;-1.832;2022-08-03T05:02:20;10.90;;;0.90;;
51848;SDS011;38952;51.090;-1.832;2022-08-03T05:04:46;1.02;;;0.47;;
51848;SDS011;38952;51.090;-1.832;2022-08-03T05:07:12;4.07;;;1.00;;
51848;SDS011;38952;51.090;-1.832;2022-08-03T05:09:38;2.70;;;0.75;;
51848;SDS011;38952;51.090;-1.832;2022-08-03T05:12:04;1.35;;;0.70;;
51848;SDS011;38952;51.090;-1.832;2022-08-03T05:14:30;1.23;;;0.50;;
51848;SDS011;38952;51.090;-1.832;2022-08-03T05:16:56;0.80;;;0.40;;
51848;SDS011;38952;51.090;-1.832;2022-08-03T05:19:21;6.05;;;0.70;;
51848;SDS011;38952;51.090;-1.832;2022-08-03T05:21:47;3.40;;;1.45;;
51848;SDS011;38952;51.090;-1.832;2022-08-03T05:24:12;1.08;;;0.47;;
51848;SDS011;38952;51.090;-1.832;2022-08-03T05:26:38;2.53;;;0.68;;
51848;SDS011;38952;51.090;-1.832;2022-08-03T05:29:03;1.95;;;0.40;;
51848;SDS011;38952;51.090;-1.832;2022-08-03T05:31:29;0.68;;;0.40;;
51848;SDS011;38952;51.090;-1.832;2022-08-03T05:33:55;1.23;;;0.40;;
51848;SDS011;38952;51.090;-1.832;2022-08-03T05:36:21;1.75;;;0.50;;
51848;SDS011;38952;51.090;-1.832;2022-08-03T05:38:46;3.35;;;0.60;;
51848;SDS011;38952;51.090;-1.832;2022-08-03T05:41:12;4.65;;;0.70;;
51848;SDS011;38952;51.090;-1.832;2022-08-03T05:43:37;1.48;;;0.45;;
51848;SDS011;38952;51.090;-1.832;2022-08-03T05:46:03;4.30;;;0.43;;
51848;SDS011;38952;51.090;-1.832;2022-08-03T05:48:28;2.13;;;0.50;;
51848;SDS011;38952;51.090;-1.832;2022-08-03T05:50:57;2.25;;;0.77;;
51848;SDS011;38952;51.090;-1.832;2022-08-03T05:53:22;1.13;;;0.40;;
51848;SDS011;38952;51.090;-1.832;2022-08-03T05:55:48;1.42;;;0.40;;
51848;SDS011;38952;51.090;-1.832;2022-08-03T05:58:13;0.75;;;0.30;;
51848;SDS011;38952;51.090;-1.832;2022-08-03T06:00:40;1.75;;;0.50;;
51848;SDS011;38952;51.090;-1.832;2022-08-03T06:03:08;2.70;;;0.45;;
51848;SDS011;38952;51.090;-1.832;2022-08-03T06:05:36;2.88;;;0.30;;
51848;SDS011;38952;51.090;-1.832;2022-08-03T06:08:02;1.45;;;0.38;;
51848;SDS011;38952;51.090;-1.832;2022-08-03T06:10:31;0.32;;;0.30;;
51848;SDS011;38952;51.090;-1.832;2022-08-03T06:12:57;0.43;;;0.35;;
51848;SDS011;38952;51.090;-1.832;2022-08-03T06:15:23;0.65;;;0.20;;
51848;SDS011;38952;51.090;-1.832;2022-08-03T06:17:49;2.88;;;0.43;;
51848;SDS011;38952;51.090;-1.832;2022-08-03T06:20:16;1.55;;;0.40;;
51848;SDS011;38952;51.090;-1.832;2022-08-03T06:22:43;0.60;;;0.30;;
51848;SDS011;38952;51.090;-1.832;2022-08-03T06:25:09;1.00;;;0.40;;
51848;SDS011;38952;51.090;-1.832;2022-08-03T06:27:35;0.88;;;0.30;;
51848;SDS011;38952;51.090;-1.832;2022-08-03T06:30:04;2.08;;;0.50;;
51848;SDS011;38952;51.090;-1.832;2022-08-03T06:32:34;1.85;;;0.47;;
51848;SDS011;38952;51.090;-1.832;2022-08-03T06:35:03;1.33;;;0.95;;
51848;SDS011;38952;51.090;-1.832;2022-08-03T06:41:01;0.85;;;0.38;;
51848;SDS011;38952;51.090;-1.832;2022-08-03T06:43:49;1.60;;;0.32;;
51848;SDS011;38952;51.090;-1.832;2022-08-03T06:46:15;0.70;;;0.20;;
51848;SDS011;38952;51.090;-1.832;2022-08-03T06:48:41;0.75;;;0.25;;
51848;SDS011;38952;51.090;-1.832;2022-08-03T06:51:06;1.30;;;0.28;;
51848;SDS011;38952;51.090;-1.832;2022-08-03T06:53:32;0.60;;;0.20;;
51848;SDS011;38952;51.090;-1.832;2022-08-03T06:55:57;0.20;;;0.10;;
51848;SDS011;38952;51.090;-1.832;2022-08-03T06:58:23;2.10;;;0.30;;
51848;SDS011;38952;51.090;-1.832;2022-08-03T07:00:48;0.60;;;0.30;;
51848;SDS011;38952;51.090;-1.832;2022-08-03T07:03:14;0.10;;;0.10;;
51848;SDS011;38952;51.090;-1.832;2022-08-03T07:05:40;0.95;;;0.30;;
51848;SDS011;38952;51.090;-1.832;2022-08-03T07:08:07;1.20;;;0.20;;
51848;SDS011;38952;51.090;-1.832;2022-08-03T07:10:32;0.82;;;0.20;;
51848;SDS011;38952;51.090;-1.832;2022-08-03T07:12:58;2.92;;;0.20;;
51848;SDS011;38952;51.090;-1.832;2022-08-03T07:15:23;0.55;;;0.30;;
51848;SDS011;38952;51.090;-1.832;2022-08-03T07:17:49;2.83;;;0.40;;
51848;SDS011;38952;51.090;-1.832;2022-08-03T07:20:14;0.52;;;0.22;;
51848;SDS011;38952;51.090;-1.832;2022-08-03T07:22:42;0.30;;;0.13;;
51848;SDS011;38952;51.090;-1.832;2022-08-03T07:25:08;0.98;;;0.10;;
51848;SDS011;38952;51.090;-1.832;2022-08-03T07:27:34;0.50;;;0.20;;
51848;SDS011;38952;51.090;-1.832;2022-08-03T07:30:00;0.32;;;0.28;;
51848;SDS011;38952;51.090;-1.832;2022-08-03T07:32:26;0.22;;;0.20;;
51848;SDS011;38952;51.090;-1.832;2022-08-03T07:34:52;0.28;;;0.20;;
51848;SDS011;38952;51.090;-1.832;2022-08-03T07:37:18;0.20;;;0.20;;
51848;SDS011;38952;51.090;-1.832;2022-08-03T07:39:44;0.10;;;0.10;;
51848;SDS011;38952;51.090;-1.832;2022-08-03T07:42:10;0.98;;;0.25;;
51848;SDS011;38952;51.090;-1.832;2022-08-03T07:44:35;0.30;;;0.30;;
51848;SDS011;38952;51.090;-1.832;2022-08-03T07:47:00;0.57;;;0.20;;
51848;SDS011;38952;51.090;-1.832;2022-08-03T07:49:26;0.52;;;0.47;;
51848;SDS011;38952;51.090;-1.832;2022-08-03T07:51:51;0.55;;;0.30;;
51848;SDS011;38952;51.090;-1.832;2022-08-03T07:54:35;0.50;;;0.20;;
51848;SDS011;38952;51.090;-1.832;2022-08-03T07:57:01;1.85;;;0.38;;
51848;SDS011;38952;51.090;-1.832;2022-08-03T07:59:26;2.00;;;0.30;;
51848;SDS011;38952;51.090;-1.832;2022-08-03T08:01:52;0.50;;;0.20;;
51848;SDS011;38952;51.090;-1.832;2022-08-03T08:04:17;0.85;;;0.20;;
51848;SDS011;38952;51.090;-1.832;2022-08-03T08:06:43;1.77;;;0.28;;
51848;SDS011;38952;51.090;-1.832;2022-08-03T08:09:08;2.75;;;0.35;;
51848;SDS011;38952;51.090;-1.832;2022-08-03T08:11:35;1.08;;;0.35;;
51848;SDS011;38952;51.090;-1.832;2022-08-03T08:14:01;2.70;;;0.50;;
51848;SDS011;38952;51.090;-1.832;2022-08-03T08:16:27;0.90;;;0.30;;
51848;SDS011;38952;51.090;-1.832;2022-08-03T08:18:53;1.38;;;0.38;;
51848;SDS011;38952;51.090;-1.832;2022-08-03T08:21:18;0.57;;;0.30;;
51848;SDS011;38952;51.090;-1.832;2022-08-03T08:23:44;0.25;;;0.20;;
51848;SDS011;38952;51.090;-1.832;2022-08-03T08:26:09;1.35;;;0.30;;
51848;SDS011;38952;51.090;-1.832;2022-08-03T08:28:35;1.50;;;0.40;;
51848;SDS011;38952;51.090;-1.832;2022-08-03T08:31:00;1.73;;;0.50;;
51848;SDS011;38952;51.090;-1.832;2022-08-03T08:33:26;3.20;;;0.30;;
51848;SDS011;38952;51.090;-1.832;2022-08-03T08:35:51;1.25;;;0.40;;
51848;SDS011;38952;51.090;-1.832;2022-08-03T08:38:17;1.00;;;0.30;;
51848;SDS011;38952;51.090;-1.832;2022-08-03T08:40:43;1.17;;;0.40;;
51848;SDS011;38952;51.090;-1.832;2022-08-03T08:43:09;2.72;;;0.30;;
51848;SDS011;38952;51.090;-1.832;2022-08-03T08:45:34;0.95;;;0.30;;
51848;SDS011;38952;51.090;-1.832;2022-08-03T08:48:01;0.82;;;0.40;;
51848;SDS011;38952;51.090;-1.832;2022-08-03T08:50:27;2.13;;;0.38;;
51848;SDS011;38952;51.090;-1.832;2022-08-03T08:52:54;1.05;;;0.40;;
51848;SDS011;38952;51.090;-1.832;2022-08-03T08:55:22;4.60;;;0.40;;
51848;SDS011;38952;51.090;-1.832;2022-08-03T08:57:49;1.13;;;0.52;;
51848;SDS011;38952;51.090;-1.832;2022-08-03T09:00:19;4.03;;;1.20;;
51848;SDS011;38952;51.090;-1.832;2022-08-03T09:02:45;6.22;;;0.75;;
51848;SDS011;38952;51.090;-1.832;2022-08-03T09:05:11;1.48;;;0.80;;
51848;SDS011;38952;51.090;-1.832;2022-08-03T09:07:39;1.35;;;0.50;;
51848;SDS011;38952;51.090;-1.832;2022-08-03T09:10:06;2.20;;;0.73;;
51848;SDS011;38952;51.090;-1.832;2022-08-03T09:12:47;2.97;;;0.70;;
51848;SDS011;38952;51.090;-1.832;2022-08-03T09:15:18;3.55;;;1.00;;
51848;SDS011;38952;51.090;-1.832;2022-08-03T09:17:43;3.47;;;0.75;;
51848;SDS011;38952;51.090;-1.832;2022-08-03T09:20:09;2.85;;;1.00;;
51848;SDS011;38952;51.090;-1.832;2022-08-03T09:22:35;4.22;;;1.15;;
51848;SDS011;38952;51.090;-1.832;2022-08-03T09:25:15;3.83;;;1.10;;
51848;SDS011;38952;51.090;-1.832;2022-08-03T09:27:44;3.20;;;1.10;;
51848;SDS011;38952;51.090;-1.832;2022-08-03T09:30:14;4.90;;;1.17;;
51848;SDS011;38952;51.090;-1.832;2022-08-03T09:32:41;3.25;;;1.08;;
51848;SDS011;38952;51.090;-1.832;2022-08-03T09:35:09;2.78;;;1.15;;
51848;SDS011;38952;51.090;-1.832;2022-08-03T09:37:35;1.52;;;0.82;;
51848;SDS011;38952;51.090;-1.832;2022-08-03T09:40:01;10.27;;;1.13;;
51848;SDS011;38952;51.090;-1.832;2022-08-03T09:42:27;6.38;;;0.98;;
51848;SDS011;38952;51.090;-1.832;2022-08-03T09:44:52;4.18;;;1.30;;
51848;SDS011;38952;51.090;-1.832;2022-08-03T09:47:34;4.13;;;1.20;;
51848;SDS011;38952;51.090;-1.832;2022-08-03T09:50:04;1.83;;;0.75;;
51848;SDS011;38952;51.090;-1.832;2022-08-03T09:52:34;7.18;;;0.95;;
51848;SDS011;38952;51.090;-1.832;2022-08-03T09:55:01;3.42;;;1.27;;
51848;SDS011;38952;51.090;-1.832;2022-08-03T09:57:36;3.20;;;1.10;;
51848;SDS011;38952;51.090;-1.832;2022-08-03T10:00:11;5.25;;;1.30;;
51848;SDS011;38952;51.090;-1.832;2022-08-03T10:02:41;1.83;;;0.77;;
51848;SDS011;38952;51.090;-1.832;2022-08-03T10:05:09;2.95;;;0.90;;
51848;SDS011;38952;51.090;-1.832;2022-08-03T10:07:43;2.10;;;0.90;;
51848;SDS011;38952;51.090;-1.832;2022-08-03T10:10:10;4.22;;;1.23;;
51848;SDS011;38952;51.090;-1.832;2022-08-03T10:12:36;4.78;;;2.95;;
51848;SDS011;38952;51.090;-1.832;2022-08-03T10:15:03;2.97;;;1.02;;
51848;SDS011;38952;51.090;-1.832;2022-08-03T10:17:29;10.43;;;1.10;;
51848;SDS011;38952;51.090;-1.832;2022-08-03T10:19:55;2.13;;;0.90;;
51848;SDS011;38952;51.090;-1.832;2022-08-03T10:22:21;2.50;;;1.00;;
51848;SDS011;38952;51.090;-1.832;2022-08-03T10:24:51;4.00;;;0.77;;
51848;SDS011;38952;51.090;-1.832;2022-08-03T10:27:23;2.28;;;1.13;;
51848;SDS011;38952;51.090;-1.832;2022-08-03T10:29:54;4.45;;;1.20;;
51848;SDS011;38952;51.090;-1.832;2022-08-03T10:32:29;2.50;;;0.85;;
51848;SDS011;38952;51.090;-1.832;2022-08-03T10:35:00;3.72;;;1.13;;
51848;SDS011;38952;51.090;-1.832;2022-08-03T10:37:29;3.50;;;1.23;;
51848;SDS011;38952;51.090;-1.832;2022-08-03T10:39:59;6.22;;;1.17;;
51848;SDS011;38952;51.090;-1.832;2022-08-03T10:42:25;2.30;;;1.00;;
51848;SDS011;38952;51.090;-1.832;2022-08-03T10:44:54;5.15;;;0.90;;
51848;SDS011;38952;51.090;-1.832;2022-08-03T10:47:26;5.18;;;1.20;;
51848;SDS011;38952;51.090;-1.832;2022-08-03T10:49:52;6.18;;;1.35;;
51848;SDS011;38952;51.090;-1.832;2022-08-03T10:52:18;2.22;;;0.93;;
51848;SDS011;38952;51.090;-1.832;2022-08-03T10:54:43;2.53;;;0.75;;
51848;SDS011;38952;51.090;-1.832;2022-08-03T10:57:47;3.65;;;1.27;;
51848;SDS011;38952;51.090;-1.832;2022-08-03T11:00:20;4.22;;;1.20;;
51848;SDS011;38952;51.090;-1.832;2022-08-03T11:05:38;6.03;;;1.48;;
51848;SDS011;38952;51.090;-1.832;2022-08-03T11:11:38;5.32;;;1.27;;
51848;SDS011;38952;51.090;-1.832;2022-08-03T11:14:05;6.00;;;1.55;;
51848;SDS011;38952;51.090;-1.832;2022-08-03T11:16:33;5.35;;;1.30;;
51848;SDS011;38952;51.090;-1.832;2022-08-03T11:19:00;8.02;;;1.98;;
51848;SDS011;38952;51.090;-1.832;2022-08-03T11:40:32;7.47;;;1.95;;
51848;SDS011;38952;51.090;-1.832;2022-08-03T11:43:08;5.90;;;1.70;;
51848;SDS011;38952;51.090;-1.832;2022-08-03T11:46:00;2.90;;;1.10;;
51848;SDS011;38952;51.090;-1.832;2022-08-03T11:48:33;4.78;;;1.80;;
51848;SDS011;38952;51.090;-1.832;2022-08-03T11:51:01;6.32;;;2.00;;
51848;SDS011;38952;51.090;-1.832;2022-08-03T11:53:28;4.38;;;1.50;;
51848;SDS011;38952;51.090;-1.832;2022-08-03T11:55:57;5.97;;;1.70;;
51848;SDS011;38952;51.090;-1.832;2022-08-03T11:58:23;4.97;;;1.63;;
51848;SDS011;38952;51.090;-1.832;2022-08-03T12:00:49;7.43;;;1.52;;
51848;SDS011;38952;51.090;-1.832;2022-08-03T12:03:16;4.07;;;1.33;;
51848;SDS011;38952;51.090;-1.832;2022-08-03T12:05:44;5.53;;;1.50;;
51848;SDS011;38952;51.090;-1.832;2022-08-03T12:08:11;4.60;;;1.75;;
51848;SDS011;38952;51.090;-1.832;2022-08-03T12:10:37;12.52;;;2.15;;
51848;SDS011;38952;51.090;-1.832;2022-08-03T12:13:05;4.95;;;1.67;;
51848;SDS011;38952;51.090;-1.832;2022-08-03T12:15:33;8.43;;;1.73;;
51848;SDS011;38952;51.090;-1.832;2022-08-03T12:17:59;5.63;;;1.50;;
51848;SDS011;38952;51.090;-1.832;2022-08-03T12:20:27;4.75;;;1.40;;
51848;SDS011;38952;51.090;-1.832;2022-08-03T12:23:00;9.30;;;2.50;;
51848;SDS011;38952;51.090;-1.832;2022-08-03T12:25:29;3.83;;;1.60;;
51848;SDS011;38952;51.090;-1.832;2022-08-03T12:28:05;4.43;;;2.03;;
51848;SDS011;38952;51.090;-1.832;2022-08-03T12:30:35;4.68;;;1.52;;
51848;SDS011;38952;51.090;-1.832;2022-08-03T12:33:15;6.97;;;1.65;;
51848;SDS011;38952;51.090;-1.832;2022-08-03T12:35:46;8.43;;;1.75;;
51848;SDS011;38952;51.090;-1.832;2022-08-03T12:38:27;7.65;;;1.90;;
51848;SDS011;38952;51.090;-1.832;2022-08-03T12:41:00;7.22;;;2.08;;
51848;SDS011;38952;51.090;-1.832;2022-08-03T12:43:29;4.18;;;1.88;;
51848;SDS011;38952;51.090;-1.832;2022-08-03T12:46:08;8.43;;;2.30;;
51848;SDS011;38952;51.090;-1.832;2022-08-03T12:48:33;6.47;;;2.10;;
51848;SDS011;38952;51.090;-1.832;2022-08-03T12:51:09;6.70;;;2.25;;
51848;SDS011;38952;51.090;-1.832;2022-08-03T12:53:34;4.82;;;1.77;;
51848;SDS011;38952;51.090;-1.832;2022-08-03T12:56:04;7.10;;;2.10;;
51848;SDS011;38952;51.090;-1.832;2022-08-03T12:58:31;8.82;;;2.67;;
51848;SDS011;38952;51.090;-1.832;2022-08-03T13:00:59;8.45;;;2.10;;
51848;SDS011;38952;51.090;-1.832;2022-08-03T13:03:24;7.18;;;2.40;;
51848;SDS011;38952;51.090;-1.832;2022-08-03T13:05:50;10.23;;;2.25;;
51848;SDS011;38952;51.090;-1.832;2022-08-03T13:08:19;7.70;;;2.13;;
51848;SDS011;38952;51.090;-1.832;2022-08-03T13:10:56;6.53;;;2.00;;
51848;SDS011;38952;51.090;-1.832;2022-08-03T13:13:37;11.63;;;2.15;;
51848;SDS011;38952;51.090;-1.832;2022-08-03T13:16:03;8.45;;;2.03;;
51848;SDS011;38952;51.090;-1.832;2022-08-03T13:18:29;7.00;;;2.45;;
51848;SDS011;38952;51.090;-1.832;2022-08-03T13:20:54;8.32;;;1.65;;
51848;SDS011;38952;51.090;-1.832;2022-08-03T13:23:19;6.45;;;2.20;;
51848;SDS011;38952;51.090;-1.832;2022-08-03T13:25:45;4.63;;;1.98;;
51848;SDS011;38952;51.090;-1.832;2022-08-03T13:28:10;9.23;;;2.40;;
51848;SDS011;38952;51.090;-1.832;2022-08-03T13:30:36;10.48;;;2.45;;
51848;SDS011;38952;51.090;-1.832;2022-08-03T13:33:01;7.55;;;2.75;;
51848;SDS011;38952;51.090;-1.832;2022-08-03T13:35:27;6.88;;;2.33;;
51848;SDS011;38952;51.090;-1.832;2022-08-03T13:37:52;5.53;;;1.90;;
51848;SDS011;38952;51.090;-1.832;2022-08-03T13:40:17;8.60;;;2.78;;
51848;SDS011;38952;51.090;-1.832;2022-08-03T13:42:43;5.20;;;2.00;;
51848;SDS011;38952;51.090;-1.832;2022-08-03T13:45:08;3.97;;;2.00;;
51848;SDS011;38952;51.090;-1.832;2022-08-03T13:47:35;5.60;;;1.40;;
51848;SDS011;38952;51.090;-1.832;2022-08-03T13:50:02;4.85;;;1.90;;
51848;SDS011;38952;51.090;-1.832;2022-08-03T13:52:28;5.60;;;1.60;;
51848;SDS011;38952;51.090;-1.832;2022-08-03T13:54:55;6.50;;;1.90;;
51848;SDS011;38952;51.090;-1.832;2022-08-03T13:57:21;5.10;;;2.03;;
51848;SDS011;38952;51.090;-1.832;2022-08-03T13:59:46;6.05;;;1.90;;
51848;SDS011;38952;51.090;-1.832;2022-08-03T14:02:13;3.13;;;1.88;;
51848;SDS011;38952;51.090;-1.832;2022-08-03T14:04:39;4.47;;;1.90;;
51848;SDS011;38952;51.090;-1.832;2022-08-03T14:07:04;5.53;;;2.05;;
51848;SDS011;38952;51.090;-1.832;2022-08-03T14:09:30;3.80;;;1.67;;
51848;SDS011;38952;51.090;-1.832;2022-08-03T14:11:55;2.72;;;1.70;;
51848;SDS011;38952;51.090;-1.832;2022-08-03T14:14:21;3.00;;;1.15;;
51848;SDS011;38952;51.090;-1.832;2022-08-03T14:16:46;8.43;;;1.45;;
51848;SDS011;38952;51.090;-1.832;2022-08-03T14:19:11;4.53;;;1.10;;
51848;SDS011;38952;51.090;-1.832;2022-08-03T14:21:37;3.72;;;1.05;;
51848;SDS011;38952;51.090;-1.832;2022-08-03T14:24:02;4.05;;;1.10;;
51848;SDS011;38952;51.090;-1.832;2022-08-03T14:26:28;5.40;;;1.20;;
51848;SDS011;38952;51.090;-1.832;2022-08-03T14:28:54;2.30;;;1.00;;
51848;SDS011;38952;51.090;-1.832;2022-08-03T14:31:19;3.53;;;1.23;;
51848;SDS011;38952;51.090;-1.832;2022-08-03T14:33:45;1.73;;;1.00;;
51848;SDS011;38952;51.090;-1.832;2022-08-03T14:36:10;5.78;;;1.20;;
51848;SDS011;38952;51.090;-1.832;2022-08-03T14:38:36;6.55;;;1.58;;
51848;SDS011;38952;51.090;-1.832;2022-08-03T14:41:01;4.45;;;1.33;;
51848;SDS011;38952;51.090;-1.832;2022-08-03T14:43:27;5.68;;;1.20;;
51848;SDS011;38952;51.090;-1.832;2022-08-03T14:45:52;2.70;;;1.30;;
51848;SDS011;38952;51.090;-1.832;2022-08-03T14:48:21;2.50;;;1.10;;
51848;SDS011;38952;51.090;-1.832;2022-08-03T14:50:49;2.58;;;0.98;;
51848;SDS011;38952;51.090;-1.832;2022-08-03T14:53:16;2.03;;;1.08;;
51848;SDS011;38952;51.090;-1.832;2022-08-03T14:55:42;2.50;;;1.25;;
51848;SDS011;38952;51.090;-1.832;2022-08-03T14:58:08;2.00;;;0.90;;
51848;SDS011;38952;51.090;-1.832;2022-08-03T15:00:33;1.48;;;0.70;;
51848;SDS011;38952;51.090;-1.832;2022-08-03T15:03:00;1.10;;;0.80;;
51848;SDS011;38952;51.090;-1.832;2022-08-03T15:05:27;2.25;;;0.77;;
51848;SDS011;38952;51.090;-1.832;2022-08-03T15:07:53;2.67;;;0.88;;
51848;SDS011;38952;51.090;-1.832;2022-08-03T15:10:18;1.98;;;0.80;;
51848;SDS011;38952;51.090;-1.832;2022-08-03T15:12:44;0.63;;;0.50;;
51848;SDS011;38952;51.090;-1.832;2022-08-03T15:15:09;1.45;;;0.60;;
51848;SDS011;38952;51.090;-1.832;2022-08-03T15:17:35;1.58;;;0.43;;
51848;SDS011;38952;51.090;-1.832;2022-08-03T15:20:00;1.52;;;0.82;;
51848;SDS011;38952;51.090;-1.832;2022-08-03T15:22:26;2.75;;;0.68;;
51848;SDS011;38952;51.090;-1.832;2022-08-03T15:24:51;1.00;;;0.68;;